sensor_id;sensor_type;location;lat;lon;timestamp;P1;durP1;ratioP1;P2;durP2;ratioP2
10387;SDS011;5240;51.128;4.566;2022-12-18T00:02:19;74.20;;;33.57;;
10387;SDS011;5240;51.128;4.566;2022-12-18T00:04:47;80.50;;;34.90;;
10387;SDS011;5240;51.128;4.566;2022-12-18T00:07:14;73.80;;;33.53;;
10387;SDS011;5240;51.128;4.566;2022-12-18T00:09:41;72.53;;;34.47;;
10387;SDS011;5240;51.128;4.566;2022-12-18T00:12:09;73.17;;;33.70;;
10387;SDS011;5240;51.128;4.566;2022-12-18T00:14:36;76.70;;;34.30;;
10387;SDS011;5240;51.128;4.566;2022-12-18T00:17:03;68.47;;;32.30;;
10387;SDS011;5240;51.128;4.566;2022-12-18T00:19:30;71.00;;;34.67;;
10387;SDS011;5240;51.128;4.566;2022-12-18T00:21:57;75.03;;;33.00;;
10387;SDS011;5240;51.128;4.566;2022-12-18T00:24:24;74.27;;;35.63;;
10387;SDS011;5240;51.128;4.566;2022-12-18T00:26:51;75.10;;;34.90;;
10387;SDS011;5240;51.128;4.566;2022-12-18T00:29:19;80.13;;;35.07;;
10387;SDS011;5240;51.128;4.566;2022-12-18T00:31:46;78.90;;;33.20;;
10387;SDS011;5240;51.128;4.566;2022-12-18T00:34:13;72.23;;;33.50;;
10387;SDS011;5240;51.128;4.566;2022-12-18T00:36:40;80.90;;;36.07;;
10387;SDS011;5240;51.128;4.566;2022-12-18T00:39:09;76.70;;;35.30;;
10387;SDS011;5240;51.128;4.566;2022-12-18T00:41:37;71.63;;;33.80;;
10387;SDS011;5240;51.128;4.566;2022-12-18T00:44:37;73.83;;;34.17;;
10387;SDS011;5240;51.128;4.566;2022-12-18T00:47:04;80.20;;;35.00;;
10387;SDS011;5240;51.128;4.566;2022-12-18T00:49:31;69.20;;;32.80;;
10387;SDS011;5240;51.128;4.566;2022-12-18T00:51:58;70.70;;;33.33;;
10387;SDS011;5240;51.128;4.566;2022-12-18T00:54:25;67.50;;;33.43;;
10387;SDS011;5240;51.128;4.566;2022-12-18T00:56:52;70.33;;;33.77;;
10387;SDS011;5240;51.128;4.566;2022-12-18T00:59:20;67.13;;;33.40;;
10387;SDS011;5240;51.128;4.566;2022-12-18T01:01:48;70.20;;;32.60;;
10387;SDS011;5240;51.128;4.566;2022-12-18T01:04:15;67.20;;;31.93;;
10387;SDS011;5240;51.128;4.566;2022-12-18T01:06:42;75.67;;;34.00;;
10387;SDS011;5240;51.128;4.566;2022-12-18T01:09:09;72.17;;;33.47;;
10387;SDS011;5240;51.128;4.566;2022-12-18T01:11:36;70.80;;;31.47;;
10387;SDS011;5240;51.128;4.566;2022-12-18T01:14:03;75.43;;;32.00;;
10387;SDS011;5240;51.128;4.566;2022-12-18T01:16:31;67.87;;;31.77;;
10387;SDS011;5240;51.128;4.566;2022-12-18T01:18:59;69.07;;;33.17;;
10387;SDS011;5240;51.128;4.566;2022-12-18T01:21:26;66.17;;;31.30;;
10387;SDS011;5240;51.128;4.566;2022-12-18T01:23:54;59.00;;;29.40;;
10387;SDS011;5240;51.128;4.566;2022-12-18T01:26:22;66.67;;;32.37;;
10387;SDS011;5240;51.128;4.566;2022-12-18T01:28:51;69.90;;;31.93;;
10387;SDS011;5240;51.128;4.566;2022-12-18T01:31:18;67.27;;;31.17;;
10387;SDS011;5240;51.128;4.566;2022-12-18T01:33:47;64.80;;;31.37;;
10387;SDS011;5240;51.128;4.566;2022-12-18T01:36:16;65.63;;;30.33;;
10387;SDS011;5240;51.128;4.566;2022-12-18T01:38:45;62.53;;;30.43;;
10387;SDS011;5240;51.128;4.566;2022-12-18T01:41:13;61.13;;;29.77;;
10387;SDS011;5240;51.128;4.566;2022-12-18T01:43:48;65.13;;;31.33;;
10387;SDS011;5240;51.128;4.566;2022-12-18T01:46:18;64.40;;;29.43;;
10387;SDS011;5240;51.128;4.566;2022-12-18T01:48:47;61.43;;;30.50;;
10387;SDS011;5240;51.128;4.566;2022-12-18T01:51:17;62.33;;;29.57;;
10387;SDS011;5240;51.128;4.566;2022-12-18T01:53:45;60.00;;;29.63;;
10387;SDS011;5240;51.128;4.566;2022-12-18T01:56:13;64.87;;;30.83;;
10387;SDS011;5240;51.128;4.566;2022-12-18T01:58:48;61.00;;;29.40;;
10387;SDS011;5240;51.128;4.566;2022-12-18T02:01:20;63.90;;;30.70;;
10387;SDS011;5240;51.128;4.566;2022-12-18T02:03:48;60.07;;;28.60;;
10387;SDS011;5240;51.128;4.566;2022-12-18T02:06:19;56.60;;;28.10;;
10387;SDS011;5240;51.128;4.566;2022-12-18T02:08:53;61.60;;;27.87;;
10387;SDS011;5240;51.128;4.566;2022-12-18T02:11:36;65.80;;;28.83;;
10387;SDS011;5240;51.128;4.566;2022-12-18T02:14:13;64.37;;;29.13;;
10387;SDS011;5240;51.128;4.566;2022-12-18T02:16:45;47.20;;;25.33;;
10387;SDS011;5240;51.128;4.566;2022-12-18T02:19:26;56.17;;;27.50;;
10387;SDS011;5240;51.128;4.566;2022-12-18T02:22:11;58.20;;;27.77;;
10387;SDS011;5240;51.128;4.566;2022-12-18T02:24:51;59.03;;;28.50;;
10387;SDS011;5240;51.128;4.566;2022-12-18T02:27:27;61.23;;;27.23;;
10387;SDS011;5240;51.128;4.566;2022-12-18T02:29:58;54.70;;;27.83;;
10387;SDS011;5240;51.128;4.566;2022-12-18T02:32:28;62.58;;;36.92;;
10387;SDS011;5240;51.128;4.566;2022-12-18T02:34:58;51.57;;;27.43;;
10387;SDS011;5240;51.128;4.566;2022-12-18T02:37:28;57.07;;;28.37;;
10387;SDS011;5240;51.128;4.566;2022-12-18T02:39:57;63.50;;;28.27;;
10387;SDS011;5240;51.128;4.566;2022-12-18T02:42:25;55.80;;;26.73;;
10387;SDS011;5240;51.128;4.566;2022-12-18T02:44:55;50.17;;;25.70;;
10387;SDS011;5240;51.128;4.566;2022-12-18T02:47:24;54.40;;;26.57;;
10387;SDS011;5240;51.128;4.566;2022-12-18T02:49:56;51.00;;;24.83;;
10387;SDS011;5240;51.128;4.566;2022-12-18T02:52:31;52.40;;;24.87;;
10387;SDS011;5240;51.128;4.566;2022-12-18T02:55:05;47.07;;;24.57;;
10387;SDS011;5240;51.128;4.566;2022-12-18T02:57:42;50.67;;;25.27;;
10387;SDS011;5240;51.128;4.566;2022-12-18T03:00:12;47.17;;;23.73;;
10387;SDS011;5240;51.128;4.566;2022-12-18T03:02:44;52.33;;;25.10;;
10387;SDS011;5240;51.128;4.566;2022-12-18T03:05:15;55.80;;;24.60;;
10387;SDS011;5240;51.128;4.566;2022-12-18T03:07:46;46.43;;;23.57;;
10387;SDS011;5240;51.128;4.566;2022-12-18T03:10:19;52.87;;;25.57;;
10387;SDS011;5240;51.128;4.566;2022-12-18T03:12:52;43.47;;;22.03;;
10387;SDS011;5240;51.128;4.566;2022-12-18T03:15:25;48.07;;;24.13;;
10387;SDS011;5240;51.128;4.566;2022-12-18T03:17:59;54.33;;;24.87;;
10387;SDS011;5240;51.128;4.566;2022-12-18T03:20:31;52.40;;;23.40;;
10387;SDS011;5240;51.128;4.566;2022-12-18T03:23:02;48.57;;;22.10;;
10387;SDS011;5240;51.128;4.566;2022-12-18T03:25:34;44.60;;;23.13;;
10387;SDS011;5240;51.128;4.566;2022-12-18T03:28:06;40.50;;;21.60;;
10387;SDS011;5240;51.128;4.566;2022-12-18T03:30:37;41.63;;;22.40;;
10387;SDS011;5240;51.128;4.566;2022-12-18T03:33:08;50.77;;;22.60;;
10387;SDS011;5240;51.128;4.566;2022-12-18T03:35:39;42.67;;;22.53;;
10387;SDS011;5240;51.128;4.566;2022-12-18T03:38:07;43.60;;;22.73;;
10387;SDS011;5240;51.128;4.566;2022-12-18T03:40:38;41.17;;;21.40;;
10387;SDS011;5240;51.128;4.566;2022-12-18T03:43:14;43.87;;;21.60;;
10387;SDS011;5240;51.128;4.566;2022-12-18T03:45:48;40.93;;;21.77;;
10387;SDS011;5240;51.128;4.566;2022-12-18T03:48:19;41.30;;;21.37;;
10387;SDS011;5240;51.128;4.566;2022-12-18T03:50:53;41.73;;;22.43;;
10387;SDS011;5240;51.128;4.566;2022-12-18T03:53:25;40.73;;;21.23;;
10387;SDS011;5240;51.128;4.566;2022-12-18T03:55:59;45.97;;;20.53;;
10387;SDS011;5240;51.128;4.566;2022-12-18T03:58:29;38.73;;;19.60;;
10387;SDS011;5240;51.128;4.566;2022-12-18T04:01:00;41.93;;;20.83;;
10387;SDS011;5240;51.128;4.566;2022-12-18T04:03:31;38.27;;;19.33;;
10387;SDS011;5240;51.128;4.566;2022-12-18T04:06:00;40.77;;;19.80;;
10387;SDS011;5240;51.128;4.566;2022-12-18T04:08:28;39.23;;;20.50;;
10387;SDS011;5240;51.128;4.566;2022-12-18T04:10:55;34.80;;;19.53;;
10387;SDS011;5240;51.128;4.566;2022-12-18T04:13:23;39.63;;;19.37;;
10387;SDS011;5240;51.128;4.566;2022-12-18T04:15:52;43.83;;;21.97;;
10387;SDS011;5240;51.128;4.566;2022-12-18T04:18:19;38.20;;;20.27;;
10387;SDS011;5240;51.128;4.566;2022-12-18T04:20:46;39.03;;;20.60;;
10387;SDS011;5240;51.128;4.566;2022-12-18T04:23:13;41.77;;;21.07;;
10387;SDS011;5240;51.128;4.566;2022-12-18T04:25:40;36.67;;;19.50;;
10387;SDS011;5240;51.128;4.566;2022-12-18T04:28:07;36.33;;;18.80;;
10387;SDS011;5240;51.128;4.566;2022-12-18T04:30:34;40.77;;;20.33;;
10387;SDS011;5240;51.128;4.566;2022-12-18T04:33:03;36.37;;;19.50;;
10387;SDS011;5240;51.128;4.566;2022-12-18T04:35:30;34.27;;;18.20;;
10387;SDS011;5240;51.128;4.566;2022-12-18T04:37:57;41.00;;;19.30;;
10387;SDS011;5240;51.128;4.566;2022-12-18T04:40:24;33.93;;;18.17;;
10387;SDS011;5240;51.128;4.566;2022-12-18T04:42:51;37.07;;;18.97;;
10387;SDS011;5240;51.128;4.566;2022-12-18T04:45:18;33.93;;;19.10;;
10387;SDS011;5240;51.128;4.566;2022-12-18T04:47:45;35.17;;;19.33;;
10387;SDS011;5240;51.128;4.566;2022-12-18T04:50:13;32.47;;;18.57;;
10387;SDS011;5240;51.128;4.566;2022-12-18T04:52:40;35.57;;;18.97;;
10387;SDS011;5240;51.128;4.566;2022-12-18T04:55:07;33.67;;;18.73;;
10387;SDS011;5240;51.128;4.566;2022-12-18T04:57:35;34.30;;;17.90;;
10387;SDS011;5240;51.128;4.566;2022-12-18T05:00:02;33.43;;;18.47;;
10387;SDS011;5240;51.128;4.566;2022-12-18T05:02:31;35.27;;;18.90;;
10387;SDS011;5240;51.128;4.566;2022-12-18T05:04:58;35.03;;;18.97;;
10387;SDS011;5240;51.128;4.566;2022-12-18T05:07:26;31.53;;;18.20;;
10387;SDS011;5240;51.128;4.566;2022-12-18T05:09:53;33.60;;;18.33;;
10387;SDS011;5240;51.128;4.566;2022-12-18T05:12:23;35.30;;;18.17;;
10387;SDS011;5240;51.128;4.566;2022-12-18T05:14:50;34.90;;;19.07;;
10387;SDS011;5240;51.128;4.566;2022-12-18T05:17:17;34.43;;;19.07;;
10387;SDS011;5240;51.128;4.566;2022-12-18T05:19:44;31.87;;;18.83;;
10387;SDS011;5240;51.128;4.566;2022-12-18T05:22:11;30.70;;;17.30;;
10387;SDS011;5240;51.128;4.566;2022-12-18T05:24:40;37.10;;;18.50;;
10387;SDS011;5240;51.128;4.566;2022-12-18T05:27:07;32.60;;;17.70;;
10387;SDS011;5240;51.128;4.566;2022-12-18T05:29:34;35.93;;;18.00;;
10387;SDS011;5240;51.128;4.566;2022-12-18T05:32:01;33.07;;;17.83;;
10387;SDS011;5240;51.128;4.566;2022-12-18T05:34:28;32.53;;;18.70;;
10387;SDS011;5240;51.128;4.566;2022-12-18T05:36:55;31.70;;;17.87;;
10387;SDS011;5240;51.128;4.566;2022-12-18T05:39:22;29.20;;;16.33;;
10387;SDS011;5240;51.128;4.566;2022-12-18T05:41:50;32.93;;;16.83;;
10387;SDS011;5240;51.128;4.566;2022-12-18T05:44:17;32.57;;;18.00;;
10387;SDS011;5240;51.128;4.566;2022-12-18T05:46:44;31.83;;;17.93;;
10387;SDS011;5240;51.128;4.566;2022-12-18T05:49:11;30.20;;;17.60;;
10387;SDS011;5240;51.128;4.566;2022-12-18T05:51:38;31.00;;;17.23;;
10387;SDS011;5240;51.128;4.566;2022-12-18T05:54:05;31.77;;;17.33;;
10387;SDS011;5240;51.128;4.566;2022-12-18T05:56:32;31.37;;;17.80;;
10387;SDS011;5240;51.128;4.566;2022-12-18T05:59:00;33.50;;;17.37;;
10387;SDS011;5240;51.128;4.566;2022-12-18T06:01:27;32.80;;;17.37;;
10387;SDS011;5240;51.128;4.566;2022-12-18T06:03:55;33.80;;;17.37;;
10387;SDS011;5240;51.128;4.566;2022-12-18T06:06:22;32.57;;;15.93;;
10387;SDS011;5240;51.128;4.566;2022-12-18T06:08:51;29.97;;;15.70;;
10387;SDS011;5240;51.128;4.566;2022-12-18T06:11:20;31.97;;;16.90;;
10387;SDS011;5240;51.128;4.566;2022-12-18T06:13:49;30.87;;;16.30;;
10387;SDS011;5240;51.128;4.566;2022-12-18T06:16:18;29.20;;;16.33;;
10387;SDS011;5240;51.128;4.566;2022-12-18T06:18:45;30.50;;;16.43;;
10387;SDS011;5240;51.128;4.566;2022-12-18T06:21:12;29.23;;;15.93;;
10387;SDS011;5240;51.128;4.566;2022-12-18T06:23:39;29.87;;;16.97;;
10387;SDS011;5240;51.128;4.566;2022-12-18T06:26:08;33.07;;;17.43;;
10387;SDS011;5240;51.128;4.566;2022-12-18T06:28:36;28.10;;;16.83;;
10387;SDS011;5240;51.128;4.566;2022-12-18T06:31:04;31.03;;;16.63;;
10387;SDS011;5240;51.128;4.566;2022-12-18T06:33:33;26.93;;;15.67;;
10387;SDS011;5240;51.128;4.566;2022-12-18T06:36:02;32.37;;;16.33;;
10387;SDS011;5240;51.128;4.566;2022-12-18T06:38:30;27.23;;;14.83;;
10387;SDS011;5240;51.128;4.566;2022-12-18T06:40:57;27.77;;;17.13;;
10387;SDS011;5240;51.128;4.566;2022-12-18T06:43:25;29.20;;;15.47;;
10387;SDS011;5240;51.128;4.566;2022-12-18T06:45:59;28.37;;;15.93;;
10387;SDS011;5240;51.128;4.566;2022-12-18T06:48:27;26.97;;;15.40;;
10387;SDS011;5240;51.128;4.566;2022-12-18T06:50:55;30.80;;;15.67;;
10387;SDS011;5240;51.128;4.566;2022-12-18T06:53:23;31.03;;;14.63;;
10387;SDS011;5240;51.128;4.566;2022-12-18T06:55:50;29.13;;;14.20;;
10387;SDS011;5240;51.128;4.566;2022-12-18T06:58:17;26.40;;;15.37;;
10387;SDS011;5240;51.128;4.566;2022-12-18T07:00:44;27.47;;;15.37;;
10387;SDS011;5240;51.128;4.566;2022-12-18T07:03:11;31.13;;;15.73;;
10387;SDS011;5240;51.128;4.566;2022-12-18T07:05:39;29.60;;;14.93;;
10387;SDS011;5240;51.128;4.566;2022-12-18T07:08:08;26.87;;;15.10;;
10387;SDS011;5240;51.128;4.566;2022-12-18T07:10:40;28.30;;;15.13;;
10387;SDS011;5240;51.128;4.566;2022-12-18T07:13:08;32.93;;;15.67;;
10387;SDS011;5240;51.128;4.566;2022-12-18T07:15:35;25.80;;;14.33;;
10387;SDS011;5240;51.128;4.566;2022-12-18T07:18:02;28.77;;;15.37;;
10387;SDS011;5240;51.128;4.566;2022-12-18T07:20:29;25.60;;;14.40;;
10387;SDS011;5240;51.128;4.566;2022-12-18T07:22:56;29.03;;;14.87;;
10387;SDS011;5240;51.128;4.566;2022-12-18T07:25:25;24.63;;;14.43;;
10387;SDS011;5240;51.128;4.566;2022-12-18T07:27:52;26.97;;;15.33;;
10387;SDS011;5240;51.128;4.566;2022-12-18T07:30:20;28.17;;;14.87;;
10387;SDS011;5240;51.128;4.566;2022-12-18T07:32:47;26.57;;;15.13;;
10387;SDS011;5240;51.128;4.566;2022-12-18T07:35:14;25.90;;;14.23;;
10387;SDS011;5240;51.128;4.566;2022-12-18T07:37:41;25.20;;;14.97;;
10387;SDS011;5240;51.128;4.566;2022-12-18T07:40:08;27.47;;;14.70;;
10387;SDS011;5240;51.128;4.566;2022-12-18T07:42:38;26.90;;;14.13;;
10387;SDS011;5240;51.128;4.566;2022-12-18T07:45:05;29.00;;;19.25;;
10387;SDS011;5240;51.128;4.566;2022-12-18T07:47:34;26.00;;;15.50;;
10387;SDS011;5240;51.128;4.566;2022-12-18T07:50:01;27.50;;;16.17;;
10387;SDS011;5240;51.128;4.566;2022-12-18T07:52:29;23.50;;;14.50;;
10387;SDS011;5240;51.128;4.566;2022-12-18T07:54:56;26.03;;;15.57;;
10387;SDS011;5240;51.128;4.566;2022-12-18T07:57:23;27.90;;;14.93;;
10387;SDS011;5240;51.128;4.566;2022-12-18T07:59:51;23.97;;;14.53;;
10387;SDS011;5240;51.128;4.566;2022-12-18T08:02:18;27.27;;;13.90;;
10387;SDS011;5240;51.128;4.566;2022-12-18T08:04:45;23.83;;;13.47;;
10387;SDS011;5240;51.128;4.566;2022-12-18T08:07:12;26.67;;;14.30;;
10387;SDS011;5240;51.128;4.566;2022-12-18T08:09:39;24.20;;;13.70;;
10387;SDS011;5240;51.128;4.566;2022-12-18T08:12:09;26.50;;;14.13;;
10387;SDS011;5240;51.128;4.566;2022-12-18T08:14:36;22.73;;;13.43;;
10387;SDS011;5240;51.128;4.566;2022-12-18T08:17:04;23.83;;;13.73;;
10387;SDS011;5240;51.128;4.566;2022-12-18T08:19:32;26.43;;;14.67;;
10387;SDS011;5240;51.128;4.566;2022-12-18T08:21:59;21.70;;;13.73;;
10387;SDS011;5240;51.128;4.566;2022-12-18T08:24:26;25.07;;;13.00;;
10387;SDS011;5240;51.128;4.566;2022-12-18T08:26:53;23.60;;;13.33;;
10387;SDS011;5240;51.128;4.566;2022-12-18T08:29:22;23.93;;;13.93;;
10387;SDS011;5240;51.128;4.566;2022-12-18T08:31:49;20.27;;;13.47;;
10387;SDS011;5240;51.128;4.566;2022-12-18T08:34:17;25.83;;;13.77;;
10387;SDS011;5240;51.128;4.566;2022-12-18T08:36:44;24.03;;;12.70;;
10387;SDS011;5240;51.128;4.566;2022-12-18T08:39:11;24.77;;;13.53;;
10387;SDS011;5240;51.128;4.566;2022-12-18T08:41:38;26.37;;;13.70;;
10387;SDS011;5240;51.128;4.566;2022-12-18T08:44:06;23.30;;;13.97;;
10387;SDS011;5240;51.128;4.566;2022-12-18T08:46:50;22.27;;;12.70;;
10387;SDS011;5240;51.128;4.566;2022-12-18T08:49:19;20.87;;;13.50;;
10387;SDS011;5240;51.128;4.566;2022-12-18T08:51:46;23.17;;;12.50;;
10387;SDS011;5240;51.128;4.566;2022-12-18T08:54:13;24.23;;;13.60;;
10387;SDS011;5240;51.128;4.566;2022-12-18T08:56:40;22.83;;;13.37;;
10387;SDS011;5240;51.128;4.566;2022-12-18T08:59:08;24.97;;;13.63;;
10387;SDS011;5240;51.128;4.566;2022-12-18T09:01:35;23.67;;;13.43;;
10387;SDS011;5240;51.128;4.566;2022-12-18T09:04:02;21.27;;;13.17;;
10387;SDS011;5240;51.128;4.566;2022-12-18T09:06:30;19.87;;;13.00;;
10387;SDS011;5240;51.128;4.566;2022-12-18T09:08:57;21.43;;;12.27;;
10387;SDS011;5240;51.128;4.566;2022-12-18T09:11:25;21.77;;;12.67;;
10387;SDS011;5240;51.128;4.566;2022-12-18T09:13:53;23.33;;;12.53;;
10387;SDS011;5240;51.128;4.566;2022-12-18T09:16:21;21.60;;;13.00;;
10387;SDS011;5240;51.128;4.566;2022-12-18T09:18:49;22.37;;;12.47;;
10387;SDS011;5240;51.128;4.566;2022-12-18T09:21:17;22.40;;;12.57;;
10387;SDS011;5240;51.128;4.566;2022-12-18T09:23:50;22.50;;;12.00;;
10387;SDS011;5240;51.128;4.566;2022-12-18T09:26:17;21.03;;;11.90;;
10387;SDS011;5240;51.128;4.566;2022-12-18T09:28:44;21.70;;;13.13;;
10387;SDS011;5240;51.128;4.566;2022-12-18T09:31:12;20.07;;;12.60;;
10387;SDS011;5240;51.128;4.566;2022-12-18T09:33:39;20.83;;;11.70;;
10387;SDS011;5240;51.128;4.566;2022-12-18T09:36:08;19.77;;;12.53;;
10387;SDS011;5240;51.128;4.566;2022-12-18T09:38:36;21.93;;;12.13;;
10387;SDS011;5240;51.128;4.566;2022-12-18T09:41:06;23.77;;;12.30;;
10387;SDS011;5240;51.128;4.566;2022-12-18T09:43:53;20.07;;;11.40;;
10387;SDS011;5240;51.128;4.566;2022-12-18T09:46:26;19.77;;;12.47;;
10387;SDS011;5240;51.128;4.566;2022-12-18T09:48:57;20.00;;;12.07;;
10387;SDS011;5240;51.128;4.566;2022-12-18T09:51:27;19.53;;;11.03;;
10387;SDS011;5240;51.128;4.566;2022-12-18T09:53:58;24.53;;;11.87;;
10387;SDS011;5240;51.128;4.566;2022-12-18T09:56:31;16.53;;;10.57;;
10387;SDS011;5240;51.128;4.566;2022-12-18T09:59:04;16.10;;;11.27;;
10387;SDS011;5240;51.128;4.566;2022-12-18T10:01:31;20.53;;;12.40;;
10387;SDS011;5240;51.128;4.566;2022-12-18T10:03:59;19.47;;;11.43;;
10387;SDS011;5240;51.128;4.566;2022-12-18T10:06:27;18.50;;;11.60;;
10387;SDS011;5240;51.128;4.566;2022-12-18T10:08:59;19.13;;;11.57;;
10387;SDS011;5240;51.128;4.566;2022-12-18T10:11:40;16.87;;;11.43;;
10387;SDS011;5240;51.128;4.566;2022-12-18T10:14:14;18.53;;;11.67;;
10387;SDS011;5240;51.128;4.566;2022-12-18T10:16:53;16.60;;;10.73;;
10387;SDS011;5240;51.128;4.566;2022-12-18T10:19:32;19.57;;;11.93;;
10387;SDS011;5240;51.128;4.566;2022-12-18T10:22:10;20.57;;;11.97;;
10387;SDS011;5240;51.128;4.566;2022-12-18T10:24:45;20.13;;;11.97;;
10387;SDS011;5240;51.128;4.566;2022-12-18T10:27:23;21.87;;;12.80;;
10387;SDS011;5240;51.128;4.566;2022-12-18T10:29:51;19.07;;;11.97;;
10387;SDS011;5240;51.128;4.566;2022-12-18T10:32:20;19.43;;;12.23;;
10387;SDS011;5240;51.128;4.566;2022-12-18T10:34:50;19.90;;;12.57;;
10387;SDS011;5240;51.128;4.566;2022-12-18T10:37:21;18.23;;;12.17;;
10387;SDS011;5240;51.128;4.566;2022-12-18T10:40:04;19.13;;;11.67;;
10387;SDS011;5240;51.128;4.566;2022-12-18T10:42:35;20.00;;;12.10;;
10387;SDS011;5240;51.128;4.566;2022-12-18T10:45:03;16.60;;;11.57;;
10387;SDS011;5240;51.128;4.566;2022-12-18T10:47:35;19.57;;;11.93;;
10387;SDS011;5240;51.128;4.566;2022-12-18T10:50:02;19.27;;;12.57;;
10387;SDS011;5240;51.128;4.566;2022-12-18T10:52:30;17.57;;;11.33;;
10387;SDS011;5240;51.128;4.566;2022-12-18T10:54:57;18.33;;;12.30;;
10387;SDS011;5240;51.128;4.566;2022-12-18T10:57:29;19.10;;;11.90;;
10387;SDS011;5240;51.128;4.566;2022-12-18T11:00:03;20.00;;;11.67;;
10387;SDS011;5240;51.128;4.566;2022-12-18T11:02:51;17.83;;;10.70;;
10387;SDS011;5240;51.128;4.566;2022-12-18T11:05:28;15.03;;;11.00;;
10387;SDS011;5240;51.128;4.566;2022-12-18T11:07:57;18.00;;;11.77;;
10387;SDS011;5240;51.128;4.566;2022-12-18T11:10:26;18.13;;;11.70;;
10387;SDS011;5240;51.128;4.566;2022-12-18T11:13:08;18.27;;;12.20;;
10387;SDS011;5240;51.128;4.566;2022-12-18T11:15:40;18.63;;;11.17;;
10387;SDS011;5240;51.128;4.566;2022-12-18T11:18:14;18.23;;;10.93;;
10387;SDS011;5240;51.128;4.566;2022-12-18T11:20:50;16.53;;;11.57;;
10387;SDS011;5240;51.128;4.566;2022-12-18T11:23:18;16.50;;;11.00;;
10387;SDS011;5240;51.128;4.566;2022-12-18T11:25:50;14.17;;;10.23;;
10387;SDS011;5240;51.128;4.566;2022-12-18T11:28:26;15.50;;;10.97;;
10387;SDS011;5240;51.128;4.566;2022-12-18T11:31:24;15.07;;;10.70;;
10387;SDS011;5240;51.128;4.566;2022-12-18T11:34:02;15.90;;;11.03;;
10387;SDS011;5240;51.128;4.566;2022-12-18T11:36:32;16.23;;;10.90;;
10387;SDS011;5240;51.128;4.566;2022-12-18T11:39:04;17.37;;;12.13;;
10387;SDS011;5240;51.128;4.566;2022-12-18T11:41:39;19.17;;;11.57;;
10387;SDS011;5240;51.128;4.566;2022-12-18T11:44:29;15.37;;;10.87;;
10387;SDS011;5240;51.128;4.566;2022-12-18T11:47:12;19.33;;;11.73;;
10387;SDS011;5240;51.128;4.566;2022-12-18T11:49:45;21.00;;;11.33;;
10387;SDS011;5240;51.128;4.566;2022-12-18T11:52:16;15.73;;;10.73;;
10387;SDS011;5240;51.128;4.566;2022-12-18T11:54:51;15.83;;;10.97;;
10387;SDS011;5240;51.128;4.566;2022-12-18T11:57:22;15.03;;;10.37;;
10387;SDS011;5240;51.128;4.566;2022-12-18T12:00:01;16.13;;;10.80;;
10387;SDS011;5240;51.128;4.566;2022-12-18T12:02:41;18.10;;;12.03;;
10387;SDS011;5240;51.128;4.566;2022-12-18T12:05:21;15.80;;;11.13;;
10387;SDS011;5240;51.128;4.566;2022-12-18T12:07:58;16.77;;;11.63;;
10387;SDS011;5240;51.128;4.566;2022-12-18T12:10:38;18.13;;;11.83;;
10387;SDS011;5240;51.128;4.566;2022-12-18T12:13:23;17.63;;;11.80;;
10387;SDS011;5240;51.128;4.566;2022-12-18T12:16:03;16.47;;;11.27;;
10387;SDS011;5240;51.128;4.566;2022-12-18T12:18:42;31.97;;;24.03;;
10387;SDS011;5240;51.128;4.566;2022-12-18T12:21:20;16.67;;;12.27;;
10387;SDS011;5240;51.128;4.566;2022-12-18T12:23:56;17.30;;;12.00;;
10387;SDS011;5240;51.128;4.566;2022-12-18T12:26:36;17.93;;;11.70;;
10387;SDS011;5240;51.128;4.566;2022-12-18T12:29:14;15.83;;;11.43;;
10387;SDS011;5240;51.128;4.566;2022-12-18T12:32:02;18.30;;;11.70;;
10387;SDS011;5240;51.128;4.566;2022-12-18T12:34:50;19.00;;;11.47;;
10387;SDS011;5240;51.128;4.566;2022-12-18T12:37:32;15.87;;;11.43;;
10387;SDS011;5240;51.128;4.566;2022-12-18T12:40:07;18.23;;;11.93;;
10387;SDS011;5240;51.128;4.566;2022-12-18T12:42:41;16.43;;;11.07;;
10387;SDS011;5240;51.128;4.566;2022-12-18T12:45:33;17.97;;;12.63;;
10387;SDS011;5240;51.128;4.566;2022-12-18T12:48:04;15.40;;;11.47;;
10387;SDS011;5240;51.128;4.566;2022-12-18T12:50:42;16.73;;;11.77;;
10387;SDS011;5240;51.128;4.566;2022-12-18T12:53:14;17.23;;;12.00;;
10387;SDS011;5240;51.128;4.566;2022-12-18T12:55:48;18.80;;;12.43;;
10387;SDS011;5240;51.128;4.566;2022-12-18T12:58:19;18.47;;;12.17;;
10387;SDS011;5240;51.128;4.566;2022-12-18T13:00:58;16.97;;;12.00;;
10387;SDS011;5240;51.128;4.566;2022-12-18T13:03:34;18.13;;;11.47;;
10387;SDS011;5240;51.128;4.566;2022-12-18T13:06:12;18.83;;;12.73;;
10387;SDS011;5240;51.128;4.566;2022-12-18T13:08:53;16.70;;;11.90;;
10387;SDS011;5240;51.128;4.566;2022-12-18T13:11:29;17.70;;;11.87;;
10387;SDS011;5240;51.128;4.566;2022-12-18T13:14:23;20.80;;;13.27;;
10387;SDS011;5240;51.128;4.566;2022-12-18T13:19:41;17.43;;;12.43;;
10387;SDS011;5240;51.128;4.566;2022-12-18T13:22:22;18.73;;;13.33;;
10387;SDS011;5240;51.128;4.566;2022-12-18T13:24:50;18.25;;;12.40;;
10387;SDS011;5240;51.128;4.566;2022-12-18T13:39:20;18.52;;;13.38;;
10387;SDS011;5240;51.128;4.566;2022-12-18T13:48:17;23.70;;;14.80;;
10387;SDS011;5240;51.128;4.566;2022-12-18T13:50:54;21.50;;;13.70;;
10387;SDS011;5240;51.128;4.566;2022-12-18T13:53:27;22.02;;;14.80;;
10387;SDS011;5240;51.128;4.566;2022-12-18T13:55:58;20.03;;;13.97;;
10387;SDS011;5240;51.128;4.566;2022-12-18T13:58:25;23.67;;;14.80;;
10387;SDS011;5240;51.128;4.566;2022-12-18T14:00:53;21.00;;;15.18;;
10387;SDS011;5240;51.128;4.566;2022-12-18T14:03:21;25.87;;;13.93;;
10387;SDS011;5240;51.128;4.566;2022-12-18T14:05:55;21.00;;;14.77;;
10387;SDS011;5240;51.128;4.566;2022-12-18T14:08:27;22.25;;;14.35;;
10387;SDS011;5240;51.128;4.566;2022-12-18T14:11:00;19.73;;;14.30;;
10387;SDS011;5240;51.128;4.566;2022-12-18T14:13:30;20.07;;;13.87;;
10387;SDS011;5240;51.128;4.566;2022-12-18T14:15:59;20.80;;;14.73;;
10387;SDS011;5240;51.128;4.566;2022-12-18T14:18:29;21.80;;;14.82;;
10387;SDS011;5240;51.128;4.566;2022-12-18T14:21:02;20.52;;;14.10;;
10387;SDS011;5240;51.128;4.566;2022-12-18T14:23:31;18.73;;;13.83;;
10387;SDS011;5240;51.128;4.566;2022-12-18T14:26:01;20.17;;;14.57;;
10387;SDS011;5240;51.128;4.566;2022-12-18T14:28:29;22.02;;;18.25;;
10387;SDS011;5240;51.128;4.566;2022-12-18T14:30:56;22.60;;;16.42;;
10387;SDS011;5240;51.128;4.566;2022-12-18T14:33:24;21.10;;;15.05;;
10387;SDS011;5240;51.128;4.566;2022-12-18T14:35:53;20.67;;;15.27;;
10387;SDS011;5240;51.128;4.566;2022-12-18T14:38:23;20.83;;;15.77;;
10387;SDS011;5240;51.128;4.566;2022-12-18T14:40:56;23.73;;;15.48;;
10387;SDS011;5240;51.128;4.566;2022-12-18T14:43:27;26.60;;;15.65;;
10387;SDS011;5240;51.128;4.566;2022-12-18T14:45:55;24.70;;;16.23;;
10387;SDS011;5240;51.128;4.566;2022-12-18T14:48:30;22.33;;;16.98;;
10387;SDS011;5240;51.128;4.566;2022-12-18T14:51:03;21.73;;;16.33;;
10387;SDS011;5240;51.128;4.566;2022-12-18T14:53:33;22.92;;;16.15;;
10387;SDS011;5240;51.128;4.566;2022-12-18T14:56:02;25.75;;;16.95;;
10387;SDS011;5240;51.128;4.566;2022-12-18T14:58:40;25.42;;;16.25;;
10387;SDS011;5240;51.128;4.566;2022-12-18T15:01:17;21.73;;;16.00;;
10387;SDS011;5240;51.128;4.566;2022-12-18T15:03:49;23.58;;;17.02;;
10387;SDS011;5240;51.128;4.566;2022-12-18T15:06:18;25.17;;;16.92;;
10387;SDS011;5240;51.128;4.566;2022-12-18T15:08:59;27.42;;;17.25;;
10387;SDS011;5240;51.128;4.566;2022-12-18T15:11:28;25.80;;;17.10;;
10387;SDS011;5240;51.128;4.566;2022-12-18T15:14:03;25.50;;;17.58;;
10387;SDS011;5240;51.128;4.566;2022-12-18T15:16:50;27.90;;;17.17;;